Latest Weather Observations for Canberra

IDN60801

Issued at 2:32 pm EST Saturday 18 April 2015 (issued every 30 minutes, with the page automatically refreshed every 10 minutes)

About weather observations | Map of weather stations | Latest weather observations for NSW | Other Formats
Station Details ID: 070351 Name: CANBERRA AIRPORT Lat: -35.31 Lon: 149.20 Height: 577.05 m
Data from the previous 72 hours. | See also: Recent months at Canberra
Date/Time
EST
Temp
°C
App
Temp
°C
Dew
Point
Rel
Hum
%
Delta-T
°C
Wind Press
QNH
hPa
Press
MSL
hPa
Rain
since 9 am
mm
Dir
 
Spd
km/h
Gust
km/h
Spd
kts
Gust
kts
18/02:00pm 22.1 17.8 14.5 62 4.6 NNW 30 41 16 22 1014.6 - 0.0
18/01:30pm 20.6 16.9 14.0 66 3.9 NW 26 35 14 19 1015.0 - 0.0
18/01:00pm 20.8 17.1 14.9 69 3.6 NW 28 35 15 19 1015.6 - 0.0
18/12:30pm 19.3 16.1 14.3 73 3.0 NW 24 32 13 17 1016.1 - 0.0
18/12:00pm 20.2 15.4 14.1 68 3.6 NW 32 44 17 24 1016.5 1015.8 0.0
18/11:30am 19.5 14.8 14.3 72 3.1 NNW 32 44 17 24 1017.2 - 0.0
18/11:00am 19.4 15.3 14.9 75 2.7 NNW 30 46 16 25 1017.8 - 0.0
18/10:39am 19.3 15.2 14.8 75 2.7 NNW 30 52 16 28 1017.9 - 0.0
18/10:30am 19.4 15.2 14.6 74 2.9 NNW 30 39 16 21 1018.0 - 0.0
18/10:00am 19.6 15.1 15.0 75 2.8 NW 32 41 17 22 1018.2 - 0.0
18/09:30am 19.3 16.0 15.0 76 2.6 NNW 26 41 14 22 1018.3 - 0.0
18/09:00am 18.8 16.3 15.1 79 2.2 N 22 28 12 15 1018.2 1017.5 5.4
18/08:30am 18.3 15.6 15.6 84 1.6 NNW 24 32 13 17 1018.3 - 5.4
18/08:00am 17.4 14.5 15.2 87 1.3 NNW 24 32 13 17 1018.2 - 5.4
18/07:30am 16.7 14.7 15.4 92 0.8 NNW 20 26 11 14 1018.4 - 5.4
18/07:00am 13.0 12.5 12.8 99 0.1 E 7 9 4 5 1018.1 - 5.4
18/06:56am 13.0 12.5 12.8 99 0.1 ESE 7 9 4 5 1018.1 - 5.4
18/06:49am 12.5 12.1 12.3 99 0.1 E 6 7 3 4 1018.1 - 5.4
18/06:30am 12.2 11.7 12.0 99 0.1 E 6 7 3 4 1018.0 - 5.4
18/06:27am 12.2 11.7 12.0 99 0.1 E 6 9 3 5 1018.0 - 5.4
18/05:39am 11.6 10.9 11.4 99 0.1 S 6 9 3 5 1017.2 - 5.4
18/05:30am 11.5 11.9 11.3 99 0.1 CALM 0 0 0 0 1017.0 - 5.4
18/05:00am 12.0 12.6 11.8 99 0.1 CALM 0 0 0 0 1017.0 - 5.4
18/04:51am 12.2 12.8 12.0 99 0.1 CALM 0 0 0 0 1017.0 - 5.4
18/04:47am 12.1 12.7 11.9 99 0.1 CALM 0 0 0 0 1017.0 - 5.4
18/04:30am 12.1 11.6 11.9 99 0.1 ESE 6 7 3 4 1016.8 - 5.4
18/04:00am 12.3 11.8 12.1 99 0.1 E 6 7 3 4 1016.9 - 5.4
18/03:58am 12.4 11.9 12.2 99 0.1 E 6 7 3 4 1016.9 - 5.4
18/03:30am 12.6 12.0 12.4 99 0.1 E 7 7 4 4 1017.1 - 5.4
18/03:24am 12.5 12.5 12.3 99 0.1 ENE 4 7 2 4 1017.1 - 5.4
18/03:11am 12.6 13.4 12.4 99 0.1 CALM 0 0 0 0 1017.2 - 5.4
18/03:00am 12.9 13.4 12.7 99 0.1 NNE 2 6 1 3 1017.4 1016.7 5.4
18/02:55am 13.1 12.9 12.9 99 0.1 NNE 6 7 3 4 1017.4 - 5.4
18/02:41am 13.3 12.9 13.1 99 0.1 N 7 9 4 5 1017.4 - 5.4
18/02:30am 13.1 12.7 12.9 99 0.1 N 7 9 4 5 1017.4 - 5.4
18/02:23am 13.2 12.4 13.0 99 0.1 N 9 9 5 5 1017.4 - 5.4
18/02:11am 12.9 12.0 12.7 99 0.1 N 9 11 5 6 1017.5 - 5.4
18/02:03am 13.0 13.1 12.8 99 0.1 N 4 9 2 5 1017.7 - 5.4
18/02:00am 13.2 13.8 13.0 99 0.1 N 2 7 1 4 1017.8 - 5.4
18/01:53am 13.5 14.2 13.3 99 0.1 N 2 7 1 4 1017.8 - 5.4
18/01:47am 13.8 14.9 13.6 99 0.1 CALM 0 6 0 3 1018.1 - 5.4
18/01:33am 13.8 14.9 13.6 99 0.1 CALM 0 0 0 0 1018.5 - 5.4
18/01:31am 13.8 14.9 13.6 99 0.1 CALM 0 0 0 0 1018.6 - 5.4
18/01:30am 13.7 14.8 13.5 99 0.1 CALM 0 0 0 0 1018.5 - 5.4
18/01:00am 13.5 14.5 13.3 99 0.1 CALM 0 0 0 0 1019.3 - 5.4
18/12:56am 13.6 14.7 13.4 99 0.1 CALM 0 0 0 0 1019.4 - 5.4
18/12:30am 13.8 14.9 13.6 99 0.1 CALM 0 0 0 0 1019.7 - 5.2
18/12:24am 13.9 15.1 13.7 99 0.1 CALM 0 0 0 0 1019.8 - 5.2
18/12:22am 13.9 15.1 13.7 99 0.1 CALM 0 0 0 0 1019.8 - 5.2
18/12:18am 13.9 15.1 13.7 99 0.1 CALM 0 0 0 0 1019.8 - 5.2
18/12:09am 13.8 14.9 13.6 99 0.1 CALM 0 0 0 0 1019.7 - 5.2
18/12:05am 13.8 14.9 13.6 99 0.1 CALM 0 0 0 0 1019.8 - 5.2
18/12:00am 13.8 14.9 13.6 99 0.1 CALM 0 0 0 0 1019.8 1019.1 5.2
 
Date/Time
EST
Temp
°C
App
Temp
°C
Dew
Point
Rel
Hum
%
Delta-T
°C
Wind Press
QNH
hPa
Press
MSL
hPa
Rain
since 9 am
mm
Dir
 
Spd
km/h
Gust
km/h
Spd
kts
Gust
kts
17/11:30pm 13.3 14.3 13.1 99 0.1 CALM 0 0 0 0 1019.9 - 5.2
17/11:00pm 13.3 14.3 13.1 99 0.1 CALM 0 0 0 0 1020.3 - 5.2
17/10:41pm 13.1 14.0 12.9 99 0.1 CALM 0 6 0 3 1020.5 - 5.2
17/10:30pm 13.5 13.8 13.3 99 0.1 ENE 4 7 2 4 1020.7 - 5.2
17/10:00pm 13.1 13.3 12.9 99 0.1 ESE 4 9 2 5 1020.9 - 5.2
17/09:34pm 13.5 14.5 13.2 98 0.2 CALM 0 0 0 0 1021.2 - 5.2
17/09:30pm 13.9 15.1 13.7 99 0.1 CALM 0 0 0 0 1021.2 - 5.2
17/09:17pm 14.2 15.5 14.0 99 0.1 CALM 0 0 0 0 1021.3 - 5.2
17/09:00pm 14.6 15.6 14.4 99 0.1 SSE 2 6 1 3 1021.4 1020.7 5.2
17/08:59pm 14.5 15.5 14.3 99 0.1 SSE 2 6 1 3 1021.4 - 5.2
17/08:53pm 14.6 15.3 14.4 99 0.1 SSE 4 6 2 3 1021.4 - 5.2
17/08:30pm 14.7 15.0 14.5 99 0.1 SE 6 7 3 4 1021.3 - 5.2
17/08:00pm 14.9 15.1 14.7 99 0.1 E 7 7 4 4 1021.6 - 5.2
17/07:30pm 15.4 15.7 15.1 98 0.2 N 7 9 4 5 1022.0 - 5.2
17/07:00pm 15.3 16.5 14.8 97 0.3 N 2 6 1 3 1021.6 - 5.2
17/06:30pm 15.6 15.6 15.3 98 0.2 NW 9 11 5 6 1021.6 - 5.0
17/06:00pm 15.7 16.0 14.9 95 0.5 NNE 7 9 4 5 1020.9 1020.3 5.0
17/05:30pm 16.0 15.9 15.0 94 0.6 N 9 11 5 6 1020.9 - 4.8
17/05:24pm 16.2 16.2 15.2 94 0.6 N 9 11 5 6 1020.9 - 4.8
17/05:00pm 16.5 16.7 15.7 95 0.5 N 9 13 5 7 1020.9 - 4.8
17/04:30pm 16.6 16.7 15.6 94 0.6 NNW 9 11 5 6 1021.3 - 4.4
17/04:00pm 16.6 16.0 15.6 94 0.6 N 13 17 7 9 1021.2 - 4.4
17/03:30pm 16.3 17.1 15.8 97 0.3 NE 6 9 3 5 1021.5 - 4.0
17/03:00pm 16.2 17.2 15.4 95 0.5 NE 4 6 2 3 1021.8 1021.1 3.6
17/02:30pm 15.9 17.2 15.1 95 0.5 NNE 2 7 1 4 1022.2 - 3.2
17/02:00pm 15.6 16.8 14.8 95 0.5 NE 2 6 1 3 1022.3 - 2.8
17/01:30pm 15.4 17.0 14.8 96 0.4 CALM 0 2 0 1 1022.7 - 2.4
17/01:00pm 15.1 15.2 14.5 96 0.4 SSW 7 9 4 5 1023.1 - 1.8
17/12:30pm 15.1 15.2 14.5 96 0.4 SSW 7 11 4 6 1023.6 - 1.4
17/12:00pm 14.8 14.3 13.8 94 0.6 S 9 11 5 6 1024.0 1023.4 1.2
17/11:30am 14.9 15.1 14.3 96 0.3 S 6 7 3 4 1024.3 - 1.0
17/11:00am 14.5 14.4 13.9 96 0.3 W 7 9 4 5 1025.0 - 0.8
17/10:30am 14.5 14.0 13.7 95 0.5 WSW 9 11 5 6 1025.3 - 0.6
17/10:00am 14.7 15.6 13.9 95 0.5 W 2 9 1 5 1025.4 - 0.0
17/09:56am 14.9 15.8 14.1 95 0.5 WSW 2 7 1 4 1025.5 - 0.0
17/09:30am 14.8 15.9 13.5 92 0.7 CALM 0 6 0 3 1025.6 - 0.0
17/09:00am 14.9 15.7 13.8 93 0.6 S 2 6 1 3 1025.7 1025.1 5.6
17/08:30am 14.6 14.7 14.0 96 0.3 SSE 6 7 3 4 1025.6 - 5.4
17/08:00am 14.4 14.6 14.1 98 0.2 SE 6 7 3 4 1025.5 - 5.4
17/07:30am 14.2 14.3 13.9 98 0.2 S 6 7 3 4 1025.5 - 4.8
17/07:00am 14.1 14.2 13.8 98 0.2 S 6 7 3 4 1025.1 - 4.4
17/06:30am 14.4 14.9 14.1 98 0.2 N 4 6 2 3 1024.8 - 3.8
17/06:16am 14.4 14.6 14.2 99 0.1 N 6 7 3 4 1024.9 - 3.2
17/06:00am 14.6 14.6 14.3 98 0.2 NNE 7 11 4 6 1024.8 1024.1 3.0
17/05:30am 14.4 14.0 14.2 99 0.1 NNE 9 9 5 5 1024.4 - 2.8
17/05:15am 14.4 14.0 14.2 99 0.1 NE 9 11 5 6 1024.3 - 2.8
17/05:00am 14.5 15.1 14.3 99 0.1 SSE 4 9 2 5 1024.5 - 2.2
17/04:30am 14.3 15.6 14.1 99 0.1 CALM 0 0 0 0 1024.5 - 1.6
17/04:00am 14.2 14.7 14.0 99 0.1 S 4 7 2 4 1024.1 - 1.6
17/03:30am 14.2 13.4 14.0 99 0.1 SSW 11 11 6 6 1023.9 - 1.6
17/03:00am 13.9 13.7 13.6 98 0.2 E 7 9 4 5 1024.0 1023.4 1.6
17/02:30am 14.0 13.8 13.7 98 0.2 WNW 7 9 4 5 1024.4 - 1.6
17/02:00am 14.5 15.8 14.0 97 0.3 CALM 0 0 0 0 1024.4 - 1.4
17/01:30am 14.2 14.6 13.6 96 0.3 ENE 4 9 2 5 1025.1 - 0.8
17/01:00am 14.2 14.5 13.4 95 0.5 NNW 4 9 2 5 1025.5 - 0.0
17/12:30am 14.4 15.4 13.1 92 0.7 CALM 0 0 0 0 1025.7 - 0.0
17/12:00am 14.1 13.3 12.8 92 0.7 S 9 11 5 6 1025.5 1024.9 0.0
 
Date/Time
EST
Temp
°C
App
Temp
°C
Dew
Point
Rel
Hum
%
Delta-T
°C
Wind Press
QNH
hPa
Press
MSL
hPa
Rain
since 9 am
mm
Dir
 
Spd
km/h
Gust
km/h
Spd
kts
Gust
kts
16/11:30pm 14.1 13.2 12.5 90 0.9 S 9 9 5 5 1025.2 - 0.0
16/11:00pm 14.1 13.7 12.3 89 1.0 SE 6 7 3 4 1025.1 - 0.0
16/10:30pm 14.3 14.5 12.0 86 1.3 E 2 7 1 4 1025.3 - 0.0
16/10:00pm 14.2 14.6 11.4 83 1.5 CALM 0 0 0 0 1025.2 - 0.0
16/09:30pm 14.9 14.2 11.9 82 1.7 S 7 9 4 5 1024.9 - 0.0
16/09:00pm 14.6 13.1 10.4 76 2.3 NNW 9 13 5 7 1024.6 1024.0 0.0
16/08:30pm 16.4 13.7 8.9 61 4.0 ENE 13 19 7 10 1024.0 - 0.0
16/08:00pm 13.3 11.1 8.0 70 2.7 NNE 9 17 5 9 1023.5 - 0.0
16/07:30pm 14.8 12.5 7.6 62 3.7 ENE 9 13 5 7 1023.2 - 0.0
16/07:00pm 17.5 14.8 7.5 52 5.2 NE 11 13 6 7 1022.8 - 0.0
16/06:30pm 18.3 15.6 7.4 49 5.7 NNE 11 15 6 8 1022.5 - 0.0
16/06:00pm 18.4 14.5 7.2 48 5.8 WNW 17 19 9 10 1022.2 1021.6 0.0
16/05:30pm 20.8 17.6 6.7 40 7.4 NNW 13 17 7 9 1022.2 - 0.0
16/05:00pm 22.7 18.1 6.5 35 8.5 NW 20 30 11 16 1022.0 - 0.0
16/04:30pm 24.1 20.0 7.7 35 8.9 WNW 19 24 10 13 1021.6 - 0.0
16/04:00pm 25.2 21.3 6.9 31 9.8 WNW 17 22 9 12 1021.7 - 0.0
16/03:30pm 25.5 22.2 8.1 33 9.6 W 15 20 8 11 1021.5 - 0.0
16/03:00pm 25.9 21.2 6.0 28 10.5 W 20 32 11 17 1021.6 1020.9 0.0
16/02:30pm 26.2 21.2 8.2 32 9.9 W 24 33 13 18 1021.7 - 0.0
16/02:00pm 26.2 22.3 9.5 35 9.4 W 20 28 11 15 1021.9 - 0.0
16/01:30pm 25.4 20.4 10.8 40 8.4 NW 28 35 15 19 1021.9 - 0.0
16/01:00pm 24.9 19.7 11.5 43 7.8 NW 30 37 16 20 1022.2 - 0.0
16/12:30pm 24.7 20.8 12.0 45 7.4 NW 24 32 13 17 1022.6 - 0.0
16/12:00pm 24.4 20.9 13.3 50 6.6 NNW 24 33 13 18 1023.4 1022.8 0.0
16/11:30am 24.1 20.3 12.4 48 6.9 NW 24 30 13 16 1023.4 - 0.0
16/11:00am 23.3 19.7 13.2 53 6.0 NW 24 28 13 15 1023.7 - 0.0
16/10:30am 22.3 19.8 13.4 57 5.3 NW 19 22 10 12 1023.6 - 0.0
16/10:00am 21.2 18.7 13.4 61 4.6 WNW 19 26 10 14 1023.6 - 0.0
16/09:30am 19.4 17.2 13.3 68 3.6 WNW 17 26 9 14 1024.0 - 0.0
16/09:00am 16.9 16.9 13.6 81 1.9 ENE 6 11 3 6 1024.2 1023.6 1.6
16/08:30am 13.7 14.1 12.4 92 0.7 N 2 7 1 4 1024.1 - 1.6
16/08:00am 11.4 11.7 10.9 97 0.3 CALM 0 0 0 0 1023.9 - 1.6
16/07:30am 9.8 9.8 9.7 99 0.1 CALM 0 0 0 0 1023.8 - 1.6
16/07:00am 8.6 8.3 8.5 99 0.0 CALM 0 0 0 0 1023.7 - 1.6
16/06:43am 7.9 7.4 7.8 99 0.0 CALM 0 0 0 0 1023.7 - 1.6
16/06:30am 8.5 8.1 8.4 99 0.0 CALM 0 - 0 - 1023.5 - 1.6
16/06:28am 8.5 8.1 8.4 99 0.0 CALM 0 0 0 0 1023.5 - 1.6
16/06:00am 8.0 7.5 7.9 99 0.0 CALM 0 0 0 0 1023.4 1022.8 1.6
16/05:30am 7.7 7.1 7.6 99 0.0 CALM 0 0 0 0 1023.2 - 1.6
16/05:00am 8.6 8.3 8.5 99 0.0 CALM 0 - 0 - 1022.8 - 1.6
16/04:30am 8.4 7.6 8.3 99 0.0 W 2 6 1 3 1022.7 - 1.6
16/04:00am 8.2 6.4 8.1 99 0.0 S 7 9 4 5 1022.4 - 1.6
16/03:30am 8.7 7.1 8.6 99 0.1 ENE 7 7 4 4 1022.5 - 1.6
16/03:21am 8.3 7.1 8.2 99 0.0 E 4 7 2 4 1022.6 - 1.6
16/03:20am 8.3 7.5 8.2 99 0.0 E 2 7 1 4 1022.6 - 1.6
16/03:16am 8.2 7.4 8.1 99 0.0 E 2 6 1 3 1022.7 - 1.6
16/03:15am 8.2 7.4 8.1 99 0.0 E 2 6 1 3 1022.7 - 1.6
16/03:14am 8.2 7.4 8.1 99 0.0 ESE 2 6 1 3 1022.7 - 1.6
16/03:13am 8.1 7.3 8.0 99 0.0 ESE 2 6 1 3 1022.7 - 1.6
16/03:12am 8.1 7.3 8.0 99 0.0 ESE 2 6 1 3 1022.8 - 1.6
16/03:11am 8.0 7.1 7.9 99 0.0 SE 2 6 1 3 1022.8 - 1.6
16/03:10am 8.0 7.1 7.9 99 0.0 SE 2 6 1 3 1022.8 - 1.6
16/03:00am 7.5 6.1 7.1 97 0.2 S 4 9 2 5 1022.8 1022.2 1.6
16/02:43am 9.0 7.4 8.9 99 0.1 N 7 11 4 6 1022.7 - 1.6
16/02:30am 9.1 8.9 9.0 99 0.1 CALM 0 0 0 0 1022.8 - 1.6
16/02:24am 9.0 8.8 8.9 99 0.1 CALM 0 0 0 0 1023.0 - 1.6
16/02:21am 9.0 8.8 8.9 99 0.1 CALM 0 0 0 0 1023.0 - 1.6
16/02:00am 9.5 9.4 9.4 99 0.1 CALM 0 0 0 0 1023.0 - 1.6
16/01:54am 9.5 9.4 9.4 99 0.1 CALM 0 0 0 0 1023.1 - 1.6
16/01:50am 9.4 9.3 9.3 99 0.1 CALM 0 0 0 0 1023.1 - 1.6
16/01:30am 9.7 9.6 9.6 99 0.1 CALM 0 0 0 0 1023.3 - 1.6
16/01:00am 9.7 9.6 9.4 98 0.2 CALM 0 0 0 0 1023.6 - 1.6
16/12:44am 9.7 9.6 9.4 98 0.2 CALM 0 0 0 0 1023.6 - 1.6
16/12:37am 9.9 9.9 9.8 99 0.1 CALM 0 0 0 0 1023.6 - 1.6
16/12:30am 10.6 10.4 10.4 99 0.1 N 2 7 1 4 1023.7 - 1.6
16/12:00am 9.9 9.8 9.6 98 0.2 CALM 0 0 0 0 1023.7 1023.1 1.6
 
Date/Time
EST
Temp
°C
App
Temp
°C
Dew
Point
Rel
Hum
%
Delta-T
°C
Wind Press
QNH
hPa
Press
MSL
hPa
Rain
since 9 am
mm
Dir
 
Spd
km/h
Gust
km/h
Spd
kts
Gust
kts
15/11:30pm 10.7 10.9 10.5 99 0.1 CALM 0 0 0 0 1023.8 - 1.6
15/11:00pm 11.1 11.4 10.8 98 0.2 CALM 0 0 0 0 1024.0 - 1.6
15/10:30pm 11.3 11.5 10.7 96 0.3 CALM 0 0 0 0 1024.2 - 1.6
15/10:00pm 12.0 12.4 11.4 96 0.3 CALM 0 0 0 0 1024.3 - 1.6
15/09:30pm 12.7 13.4 12.1 96 0.3 CALM 0 0 0 0 1024.2 - 1.6
15/09:00pm 12.9 13.6 12.3 96 0.3 CALM 0 0 0 0 1024.1 1023.5 1.6
15/08:30pm 13.2 12.4 12.9 98 0.2 E 9 9 5 5 1024.1 - 1.6
15/08:00pm 12.9 13.5 12.0 94 0.5 CALM 0 0 0 0 1024.1 - 1.6
15/07:30pm 13.7 14.6 12.8 94 0.5 CALM 0 0 0 0 1023.8 - 1.6
15/07:00pm 14.0 13.5 12.7 92 0.7 ENE 7 9 4 5 1023.6 - 1.6
15/06:30pm 14.7 14.5 13.1 90 0.9 ENE 6 9 3 5 1023.6 - 1.6
15/06:00pm 15.3 14.7 13.5 89 1.0 E 9 11 5 6 1023.5 1022.9 1.6
15/05:30pm 16.9 16.4 13.8 82 1.8 ESE 9 9 5 5 1023.1 - 1.6
15/05:00pm 18.6 18.6 14.1 75 2.7 SE 7 9 4 5 1023.0 - 1.6
15/04:30pm 19.3 18.1 12.8 66 3.8 E 11 13 6 7 1022.6 - 1.6
15/04:00pm 18.8 18.1 15.5 81 2.0 E 13 15 7 8 1023.0 - 1.6
15/03:50pm 17.5 17.5 15.3 87 1.3 E 9 13 5 7 1023.7 - 1.6
15/03:30pm 17.5 17.3 14.6 83 1.7 WSW 9 15 5 8 1024.4 - 1.6
15/03:17pm 17.8 16.6 13.9 78 2.3 SW 13 17 7 9 1024.2 - 0.8
15/03:00pm 18.8 18.0 13.0 69 3.3 SE 9 11 5 6 1023.5 1022.9 0.6

Other Formats:

Comma delimited format used in spreadsheet applications
http://www.bom.gov.au/fwo/IDN60801/IDN60801.94926.axf

JavaScript Object Notation format (JSON) in row-major order
http://www.bom.gov.au/fwo/IDN60801/IDN60801.94926.json